sensor_id;sensor_type;location;lat;lon;timestamp;temperature;humidity
6627;DHT22;3349;49.830;8.748;2024-03-17T00:01:00;6.70;99.90
6627;DHT22;3349;49.830;8.748;2024-03-17T00:03:27;6.70;99.90
6627;DHT22;3349;49.830;8.748;2024-03-17T00:05:56;6.70;99.90
6627;DHT22;3349;49.830;8.748;2024-03-17T00:08:23;6.70;99.90
6627;DHT22;3349;49.830;8.748;2024-03-17T00:10:50;6.70;99.90
6627;DHT22;3349;49.830;8.748;2024-03-17T00:13:17;6.70;99.90
6627;DHT22;3349;49.830;8.748;2024-03-17T00:15:42;6.60;99.90
6627;DHT22;3349;49.830;8.748;2024-03-17T00:18:10;6.60;99.90
6627;DHT22;3349;49.830;8.748;2024-03-17T00:20:36;6.60;99.90
6627;DHT22;3349;49.830;8.748;2024-03-17T00:23:05;6.50;99.90
6627;DHT22;3349;49.830;8.748;2024-03-17T00:25:32;6.40;99.90
6627;DHT22;3349;49.830;8.748;2024-03-17T00:27:59;6.40;99.90
6627;DHT22;3349;49.830;8.748;2024-03-17T00:30:25;6.30;99.90
6627;DHT22;3349;49.830;8.748;2024-03-17T00:32:51;6.30;99.90
6627;DHT22;3349;49.830;8.748;2024-03-17T00:35:18;6.20;99.90
6627;DHT22;3349;49.830;8.748;2024-03-17T00:37:47;6.20;99.90
6627;DHT22;3349;49.830;8.748;2024-03-17T00:40:14;6.10;99.90
6627;DHT22;3349;49.830;8.748;2024-03-17T00:42:41;6.10;99.90
6627;DHT22;3349;49.830;8.748;2024-03-17T00:45:08;6.10;99.90
6627;DHT22;3349;49.830;8.748;2024-03-17T00:47:35;6.00;99.90
6627;DHT22;3349;49.830;8.748;2024-03-17T00:50:01;6.00;99.90
6627;DHT22;3349;49.830;8.748;2024-03-17T00:52:29;6.00;99.90
6627;DHT22;3349;49.830;8.748;2024-03-17T00:54:54;6.00;99.90
6627;DHT22;3349;49.830;8.748;2024-03-17T00:57:22;5.90;99.90
6627;DHT22;3349;49.830;8.748;2024-03-17T00:59:49;5.90;99.90
6627;DHT22;3349;49.830;8.748;2024-03-17T01:02:18;5.90;99.90
6627;DHT22;3349;49.830;8.748;2024-03-17T01:04:44;5.80;99.90
6627;DHT22;3349;49.830;8.748;2024-03-17T01:07:11;5.70;99.90
6627;DHT22;3349;49.830;8.748;2024-03-17T01:09:37;5.60;99.90
6627;DHT22;3349;49.830;8.748;2024-03-17T01:12:04;5.70;99.90
6627;DHT22;3349;49.830;8.748;2024-03-17T01:14:32;5.60;99.90
6627;DHT22;3349;49.830;8.748;2024-03-17T01:17:00;5.70;99.90
6627;DHT22;3349;49.830;8.748;2024-03-17T01:19:26;5.60;99.90
6627;DHT22;3349;49.830;8.748;2024-03-17T01:21:53;5.50;99.90
6627;DHT22;3349;49.830;8.748;2024-03-17T01:24:18;5.40;99.90
6627;DHT22;3349;49.830;8.748;2024-03-17T01:26:45;5.50;99.90
6627;DHT22;3349;49.830;8.748;2024-03-17T01:29:11;5.40;99.90
6627;DHT22;3349;49.830;8.748;2024-03-17T01:31:40;5.40;99.90
6627;DHT22;3349;49.830;8.748;2024-03-17T01:34:06;5.40;99.90
6627;DHT22;3349;49.830;8.748;2024-03-17T01:36:32;5.40;99.90
6627;DHT22;3349;49.830;8.748;2024-03-17T01:38:59;5.30;99.90
6627;DHT22;3349;49.830;8.748;2024-03-17T01:41:27;5.30;99.90
6627;DHT22;3349;49.830;8.748;2024-03-17T01:43:53;5.30;99.90
6627;DHT22;3349;49.830;8.748;2024-03-17T01:46:20;5.20;99.90
6627;DHT22;3349;49.830;8.748;2024-03-17T01:48:47;5.20;99.90
6627;DHT22;3349;49.830;8.748;2024-03-17T01:51:15;5.10;99.90
6627;DHT22;3349;49.830;8.748;2024-03-17T01:53:42;5.10;99.90
6627;DHT22;3349;49.830;8.748;2024-03-17T01:56:10;5.00;99.90
6627;DHT22;3349;49.830;8.748;2024-03-17T01:58:36;5.00;99.90
6627;DHT22;3349;49.830;8.748;2024-03-17T02:01:03;5.00;99.90
6627;DHT22;3349;49.830;8.748;2024-03-17T02:03:29;4.90;99.90
6627;DHT22;3349;49.830;8.748;2024-03-17T02:05:57;4.90;99.90
6627;DHT22;3349;49.830;8.748;2024-03-17T02:08:23;4.90;99.90
6627;DHT22;3349;49.830;8.748;2024-03-17T02:10:52;4.80;99.90
6627;DHT22;3349;49.830;8.748;2024-03-17T02:13:20;4.80;99.90
6627;DHT22;3349;49.830;8.748;2024-03-17T02:15:46;4.70;99.90
6627;DHT22;3349;49.830;8.748;2024-03-17T02:18:13;4.60;99.90
6627;DHT22;3349;49.830;8.748;2024-03-17T02:20:39;4.60;99.90
6627;DHT22;3349;49.830;8.748;2024-03-17T02:23:27;4.60;99.90
6627;DHT22;3349;49.830;8.748;2024-03-17T02:25:53;4.50;99.90
6627;DHT22;3349;49.830;8.748;2024-03-17T02:28:20;4.40;99.90
6627;DHT22;3349;49.830;8.748;2024-03-17T02:30:46;4.40;99.90
6627;DHT22;3349;49.830;8.748;2024-03-17T02:33:13;4.30;99.90
6627;DHT22;3349;49.830;8.748;2024-03-17T02:35:38;4.20;99.90
6627;DHT22;3349;49.830;8.748;2024-03-17T02:38:05;4.10;99.90
6627;DHT22;3349;49.830;8.748;2024-03-17T02:40:34;4.10;99.90
6627;DHT22;3349;49.830;8.748;2024-03-17T02:43:01;4.00;99.90
6627;DHT22;3349;49.830;8.748;2024-03-17T02:45:27;3.90;99.90
6627;DHT22;3349;49.830;8.748;2024-03-17T02:47:54;3.90;99.90
6627;DHT22;3349;49.830;8.748;2024-03-17T02:50:21;4.00;99.90
6627;DHT22;3349;49.830;8.748;2024-03-17T02:52:48;3.90;99.90
6627;DHT22;3349;49.830;8.748;2024-03-17T02:55:14;3.90;99.90
6627;DHT22;3349;49.830;8.748;2024-03-17T02:57:44;3.80;99.90
6627;DHT22;3349;49.830;8.748;2024-03-17T03:00:11;3.70;99.90
6627;DHT22;3349;49.830;8.748;2024-03-17T03:02:38;3.70;99.90
6627;DHT22;3349;49.830;8.748;2024-03-17T03:05:06;3.70;99.90
6627;DHT22;3349;49.830;8.748;2024-03-17T03:07:33;3.70;99.90
6627;DHT22;3349;49.830;8.748;2024-03-17T03:09:59;3.60;99.90
6627;DHT22;3349;49.830;8.748;2024-03-17T03:12:26;3.60;99.90
6627;DHT22;3349;49.830;8.748;2024-03-17T03:14:54;3.50;99.90
6627;DHT22;3349;49.830;8.748;2024-03-17T03:17:21;3.50;99.90
6627;DHT22;3349;49.830;8.748;2024-03-17T03:19:47;3.40;99.90
6627;DHT22;3349;49.830;8.748;2024-03-17T03:22:14;3.40;99.90
6627;DHT22;3349;49.830;8.748;2024-03-17T03:24:41;3.40;99.90
6627;DHT22;3349;49.830;8.748;2024-03-17T03:27:07;3.50;99.90
6627;DHT22;3349;49.830;8.748;2024-03-17T03:29:34;3.50;99.90
6627;DHT22;3349;49.830;8.748;2024-03-17T03:32:02;3.40;99.90
6627;DHT22;3349;49.830;8.748;2024-03-17T03:34:29;3.40;99.90
6627;DHT22;3349;49.830;8.748;2024-03-17T03:36:55;3.30;99.90
6627;DHT22;3349;49.830;8.748;2024-03-17T03:39:22;3.20;99.90
6627;DHT22;3349;49.830;8.748;2024-03-17T03:41:50;3.20;99.90
6627;DHT22;3349;49.830;8.748;2024-03-17T03:44:17;3.20;99.90
6627;DHT22;3349;49.830;8.748;2024-03-17T03:46:44;3.20;99.90
6627;DHT22;3349;49.830;8.748;2024-03-17T03:49:13;3.10;99.90
6627;DHT22;3349;49.830;8.748;2024-03-17T03:51:40;3.10;99.90
6627;DHT22;3349;49.830;8.748;2024-03-17T03:54:06;3.10;99.90
6627;DHT22;3349;49.830;8.748;2024-03-17T03:56:33;3.10;99.90
6627;DHT22;3349;49.830;8.748;2024-03-17T03:59:00;3.10;99.90
6627;DHT22;3349;49.830;8.748;2024-03-17T04:01:26;3.10;99.90
6627;DHT22;3349;49.830;8.748;2024-03-17T04:03:53;3.10;99.90
6627;DHT22;3349;49.830;8.748;2024-03-17T04:06:21;3.10;99.90
6627;DHT22;3349;49.830;8.748;2024-03-17T04:08:48;3.20;99.90
6627;DHT22;3349;49.830;8.748;2024-03-17T04:11:15;3.20;99.90
6627;DHT22;3349;49.830;8.748;2024-03-17T04:13:42;3.20;99.90
6627;DHT22;3349;49.830;8.748;2024-03-17T04:16:09;3.20;99.90
6627;DHT22;3349;49.830;8.748;2024-03-17T04:18:36;3.30;99.90
6627;DHT22;3349;49.830;8.748;2024-03-17T04:21:05;3.30;99.90
6627;DHT22;3349;49.830;8.748;2024-03-17T04:23:34;3.30;99.90
6627;DHT22;3349;49.830;8.748;2024-03-17T04:26:01;3.20;99.90
6627;DHT22;3349;49.830;8.748;2024-03-17T04:28:28;3.20;99.90
6627;DHT22;3349;49.830;8.748;2024-03-17T04:31:03;3.30;99.90
6627;DHT22;3349;49.830;8.748;2024-03-17T04:33:31;3.30;99.90
6627;DHT22;3349;49.830;8.748;2024-03-17T04:35:57;3.30;99.90
6627;DHT22;3349;49.830;8.748;2024-03-17T04:38:24;3.20;99.90
6627;DHT22;3349;49.830;8.748;2024-03-17T04:40:52;3.10;99.90
6627;DHT22;3349;49.830;8.748;2024-03-17T04:43:24;3.00;99.90
6627;DHT22;3349;49.830;8.748;2024-03-17T04:45:59;3.00;99.90
6627;DHT22;3349;49.830;8.748;2024-03-17T04:48:26;3.00;99.90
6627;DHT22;3349;49.830;8.748;2024-03-17T04:50:53;3.10;99.90
6627;DHT22;3349;49.830;8.748;2024-03-17T04:53:20;3.00;99.90
6627;DHT22;3349;49.830;8.748;2024-03-17T04:55:47;3.10;99.90
6627;DHT22;3349;49.830;8.748;2024-03-17T04:58:14;3.10;99.90
6627;DHT22;3349;49.830;8.748;2024-03-17T05:00:40;3.10;99.90
6627;DHT22;3349;49.830;8.748;2024-03-17T05:03:07;3.00;99.90
6627;DHT22;3349;49.830;8.748;2024-03-17T05:05:34;3.00;99.90
6627;DHT22;3349;49.830;8.748;2024-03-17T05:08:00;2.90;99.90
6627;DHT22;3349;49.830;8.748;2024-03-17T05:10:27;3.00;99.90
6627;DHT22;3349;49.830;8.748;2024-03-17T05:12:54;3.10;99.90
6627;DHT22;3349;49.830;8.748;2024-03-17T05:15:22;3.10;99.90
6627;DHT22;3349;49.830;8.748;2024-03-17T05:17:49;3.10;99.90
6627;DHT22;3349;49.830;8.748;2024-03-17T05:20:16;3.00;99.90
6627;DHT22;3349;49.830;8.748;2024-03-17T05:22:43;2.90;99.90
6627;DHT22;3349;49.830;8.748;2024-03-17T05:25:11;2.90;99.90
6627;DHT22;3349;49.830;8.748;2024-03-17T05:27:39;2.80;99.90
6627;DHT22;3349;49.830;8.748;2024-03-17T05:30:07;2.90;99.90
6627;DHT22;3349;49.830;8.748;2024-03-17T05:32:36;2.80;99.90
6627;DHT22;3349;49.830;8.748;2024-03-17T05:35:04;2.80;99.90
6627;DHT22;3349;49.830;8.748;2024-03-17T05:37:31;2.80;99.90
6627;DHT22;3349;49.830;8.748;2024-03-17T05:39:57;2.80;99.90
6627;DHT22;3349;49.830;8.748;2024-03-17T05:42:24;2.80;99.90
6627;DHT22;3349;49.830;8.748;2024-03-17T05:44:51;2.90;99.90
6627;DHT22;3349;49.830;8.748;2024-03-17T05:47:18;2.90;99.90
6627;DHT22;3349;49.830;8.748;2024-03-17T05:49:46;3.00;99.90
6627;DHT22;3349;49.830;8.748;2024-03-17T05:52:13;3.00;99.90
6627;DHT22;3349;49.830;8.748;2024-03-17T05:54:40;3.10;99.90
6627;DHT22;3349;49.830;8.748;2024-03-17T05:57:06;3.10;99.90
6627;DHT22;3349;49.830;8.748;2024-03-17T05:59:34;3.20;99.90
6627;DHT22;3349;49.830;8.748;2024-03-17T06:02:01;3.20;99.90
6627;DHT22;3349;49.830;8.748;2024-03-17T06:04:28;3.30;99.90
6627;DHT22;3349;49.830;8.748;2024-03-17T06:06:56;3.30;99.90
6627;DHT22;3349;49.830;8.748;2024-03-17T06:09:22;3.40;99.90
6627;DHT22;3349;49.830;8.748;2024-03-17T06:11:49;3.50;99.90
6627;DHT22;3349;49.830;8.748;2024-03-17T06:14:16;3.70;99.90
6627;DHT22;3349;49.830;8.748;2024-03-17T06:16:43;3.80;99.90
6627;DHT22;3349;49.830;8.748;2024-03-17T06:19:10;3.90;99.90
6627;DHT22;3349;49.830;8.748;2024-03-17T06:21:37;4.00;99.90
6627;DHT22;3349;49.830;8.748;2024-03-17T06:24:06;4.10;99.90
6627;DHT22;3349;49.830;8.748;2024-03-17T06:26:33;4.10;99.90
6627;DHT22;3349;49.830;8.748;2024-03-17T06:29:00;4.20;99.90
6627;DHT22;3349;49.830;8.748;2024-03-17T06:31:27;4.30;99.90
6627;DHT22;3349;49.830;8.748;2024-03-17T06:33:54;4.30;99.90
6627;DHT22;3349;49.830;8.748;2024-03-17T06:36:21;4.40;99.90
6627;DHT22;3349;49.830;8.748;2024-03-17T06:38:47;4.50;99.60
6627;DHT22;3349;49.830;8.748;2024-03-17T06:41:15;4.50;98.90
6627;DHT22;3349;49.830;8.748;2024-03-17T06:43:42;4.60;98.40
6627;DHT22;3349;49.830;8.748;2024-03-17T06:46:09;4.80;98.50
6627;DHT22;3349;49.830;8.748;2024-03-17T06:48:36;4.90;98.40
6627;DHT22;3349;49.830;8.748;2024-03-17T06:51:03;5.00;98.20
6627;DHT22;3349;49.830;8.748;2024-03-17T06:53:31;5.10;97.70
6627;DHT22;3349;49.830;8.748;2024-03-17T06:55:59;5.20;97.10
6627;DHT22;3349;49.830;8.748;2024-03-17T06:58:27;5.30;96.80
6627;DHT22;3349;49.830;8.748;2024-03-17T07:00:56;5.30;96.50
6627;DHT22;3349;49.830;8.748;2024-03-17T07:03:24;5.40;96.10
6627;DHT22;3349;49.830;8.748;2024-03-17T07:05:52;5.40;95.60
6627;DHT22;3349;49.830;8.748;2024-03-17T07:08:19;5.40;95.50
6627;DHT22;3349;49.830;8.748;2024-03-17T07:10:58;5.40;95.10
6627;DHT22;3349;49.830;8.748;2024-03-17T07:13:25;5.40;95.10
6627;DHT22;3349;49.830;8.748;2024-03-17T07:15:53;5.40;95.40
6627;DHT22;3349;49.830;8.748;2024-03-17T07:18:20;5.40;95.60
6627;DHT22;3349;49.830;8.748;2024-03-17T07:20:47;5.50;95.60
6627;DHT22;3349;49.830;8.748;2024-03-17T07:23:14;5.50;95.70
6627;DHT22;3349;49.830;8.748;2024-03-17T07:25:41;5.50;95.50
6627;DHT22;3349;49.830;8.748;2024-03-17T07:28:08;5.60;95.30
6627;DHT22;3349;49.830;8.748;2024-03-17T07:30:35;5.70;95.00
6627;DHT22;3349;49.830;8.748;2024-03-17T07:33:04;5.70;94.90
6627;DHT22;3349;49.830;8.748;2024-03-17T07:35:31;5.70;93.80
6627;DHT22;3349;49.830;8.748;2024-03-17T07:37:57;5.80;93.90
6627;DHT22;3349;49.830;8.748;2024-03-17T07:40:24;5.90;93.10
6627;DHT22;3349;49.830;8.748;2024-03-17T07:42:51;6.00;92.90
6627;DHT22;3349;49.830;8.748;2024-03-17T07:45:18;6.10;92.60
6627;DHT22;3349;49.830;8.748;2024-03-17T07:47:45;6.20;92.60
6627;DHT22;3349;49.830;8.748;2024-03-17T07:50:13;6.40;92.90
6627;DHT22;3349;49.830;8.748;2024-03-17T07:52:40;6.60;93.00
6627;DHT22;3349;49.830;8.748;2024-03-17T07:55:07;6.70;92.50
6627;DHT22;3349;49.830;8.748;2024-03-17T07:57:34;6.90;92.40
6627;DHT22;3349;49.830;8.748;2024-03-17T08:00:01;7.00;92.20
6627;DHT22;3349;49.830;8.748;2024-03-17T08:02:28;7.10;91.90
6627;DHT22;3349;49.830;8.748;2024-03-17T08:04:55;7.30;91.50
6627;DHT22;3349;49.830;8.748;2024-03-17T08:07:23;7.40;90.70
6627;DHT22;3349;49.830;8.748;2024-03-17T08:09:50;7.60;90.10
6627;DHT22;3349;49.830;8.748;2024-03-17T08:12:16;7.70;89.20
6627;DHT22;3349;49.830;8.748;2024-03-17T08:14:42;7.80;88.20
6627;DHT22;3349;49.830;8.748;2024-03-17T08:17:09;7.90;87.00
6627;DHT22;3349;49.830;8.748;2024-03-17T08:19:36;8.00;85.70
6627;DHT22;3349;49.830;8.748;2024-03-17T08:22:04;8.20;85.10
6627;DHT22;3349;49.830;8.748;2024-03-17T08:24:32;8.50;84.70
6627;DHT22;3349;49.830;8.748;2024-03-17T08:26:59;8.80;83.40
6627;DHT22;3349;49.830;8.748;2024-03-17T08:29:26;9.10;82.20
6627;DHT22;3349;49.830;8.748;2024-03-17T08:31:53;9.40;79.90
6627;DHT22;3349;49.830;8.748;2024-03-17T08:34:19;9.70;77.50
6627;DHT22;3349;49.830;8.748;2024-03-17T08:36:46;9.90;73.80
6627;DHT22;3349;49.830;8.748;2024-03-17T08:39:13;10.00;68.80
6627;DHT22;3349;49.830;8.748;2024-03-17T08:41:41;10.10;67.70
6627;DHT22;3349;49.830;8.748;2024-03-17T08:44:09;10.20;66.40
6627;DHT22;3349;49.830;8.748;2024-03-17T08:46:36;10.20;65.20
6627;DHT22;3349;49.830;8.748;2024-03-17T08:49:03;10.40;65.40
6627;DHT22;3349;49.830;8.748;2024-03-17T08:51:30;10.50;66.20
6627;DHT22;3349;49.830;8.748;2024-03-17T08:53:57;10.80;65.70
6627;DHT22;3349;49.830;8.748;2024-03-17T08:56:24;11.10;64.10
6627;DHT22;3349;49.830;8.748;2024-03-17T08:58:52;11.30;63.10
6627;DHT22;3349;49.830;8.748;2024-03-17T09:01:18;11.50;60.80
6627;DHT22;3349;49.830;8.748;2024-03-17T09:03:45;11.90;61.60
6627;DHT22;3349;49.830;8.748;2024-03-17T09:06:15;12.10;59.00
6627;DHT22;3349;49.830;8.748;2024-03-17T09:08:42;12.30;58.30
6627;DHT22;3349;49.830;8.748;2024-03-17T09:11:12;12.50;57.10
6627;DHT22;3349;49.830;8.748;2024-03-17T09:13:39;12.60;57.40
6627;DHT22;3349;49.830;8.748;2024-03-17T09:16:08;12.70;57.10
6627;DHT22;3349;49.830;8.748;2024-03-17T09:18:36;12.70;56.10
6627;DHT22;3349;49.830;8.748;2024-03-17T09:21:05;12.70;55.60
6627;DHT22;3349;49.830;8.748;2024-03-17T09:23:33;12.50;55.10
6627;DHT22;3349;49.830;8.748;2024-03-17T09:26:01;12.60;55.80
6627;DHT22;3349;49.830;8.748;2024-03-17T09:28:28;12.60;56.00
6627;DHT22;3349;49.830;8.748;2024-03-17T09:30:56;12.80;55.80
6627;DHT22;3349;49.830;8.748;2024-03-17T09:33:25;12.80;54.60
6627;DHT22;3349;49.830;8.748;2024-03-17T09:35:56;13.00;55.10
6627;DHT22;3349;49.830;8.748;2024-03-17T09:38:23;13.30;53.90
6627;DHT22;3349;49.830;8.748;2024-03-17T09:40:50;13.70;53.90
6627;DHT22;3349;49.830;8.748;2024-03-17T09:43:19;14.00;52.80
6627;DHT22;3349;49.830;8.748;2024-03-17T09:45:45;14.00;51.80
6627;DHT22;3349;49.830;8.748;2024-03-17T09:48:14;14.20;52.10
6627;DHT22;3349;49.830;8.748;2024-03-17T09:50:48;14.50;52.50
6627;DHT22;3349;49.830;8.748;2024-03-17T09:53:16;14.70;51.20
6627;DHT22;3349;49.830;8.748;2024-03-17T09:55:44;14.70;51.30
6627;DHT22;3349;49.830;8.748;2024-03-17T09:58:15;14.70;49.60
6627;DHT22;3349;49.830;8.748;2024-03-17T10:00:42;15.40;49.40
6627;DHT22;3349;49.830;8.748;2024-03-17T10:03:08;15.50;46.90
6627;DHT22;3349;49.830;8.748;2024-03-17T10:05:35;15.70;46.80
6627;DHT22;3349;49.830;8.748;2024-03-17T10:08:03;15.50;46.80
6627;DHT22;3349;49.830;8.748;2024-03-17T10:10:30;15.40;47.50
6627;DHT22;3349;49.830;8.748;2024-03-17T10:12:57;15.90;47.40
6627;DHT22;3349;49.830;8.748;2024-03-17T10:15:23;16.20;46.70
6627;DHT22;3349;49.830;8.748;2024-03-17T10:17:50;16.00;45.20
6627;DHT22;3349;49.830;8.748;2024-03-17T10:20:18;16.20;45.40
6627;DHT22;3349;49.830;8.748;2024-03-17T10:23:03;16.50;45.60
6627;DHT22;3349;49.830;8.748;2024-03-17T10:25:32;17.30;44.00
6627;DHT22;3349;49.830;8.748;2024-03-17T10:27:59;17.90;42.30
6627;DHT22;3349;49.830;8.748;2024-03-17T10:30:27;17.70;39.50
6627;DHT22;3349;49.830;8.748;2024-03-17T10:32:57;17.30;41.20
6627;DHT22;3349;49.830;8.748;2024-03-17T10:35:28;17.30;41.70
6627;DHT22;3349;49.830;8.748;2024-03-17T10:37:57;17.90;40.80
6627;DHT22;3349;49.830;8.748;2024-03-17T10:40:27;18.30;38.60
6627;DHT22;3349;49.830;8.748;2024-03-17T10:42:55;18.60;39.00
6627;DHT22;3349;49.830;8.748;2024-03-17T10:45:22;19.00;37.80
6627;DHT22;3349;49.830;8.748;2024-03-17T10:47:51;19.80;37.30
6627;DHT22;3349;49.830;8.748;2024-03-17T10:50:19;19.40;37.20
6627;DHT22;3349;49.830;8.748;2024-03-17T10:52:48;18.70;36.80
6627;DHT22;3349;49.830;8.748;2024-03-17T10:55:23;18.50;37.70
6627;DHT22;3349;49.830;8.748;2024-03-17T10:57:53;18.40;38.10
6627;DHT22;3349;49.830;8.748;2024-03-17T11:00:22;17.60;38.10
6627;DHT22;3349;49.830;8.748;2024-03-17T11:02:52;17.30;39.40
6627;DHT22;3349;49.830;8.748;2024-03-17T11:05:23;16.70;39.90
6627;DHT22;3349;49.830;8.748;2024-03-17T11:07:52;16.30;40.20
6627;DHT22;3349;49.830;8.748;2024-03-17T11:10:21;15.80;41.00
6627;DHT22;3349;49.830;8.748;2024-03-17T11:12:50;15.50;42.00
6627;DHT22;3349;49.830;8.748;2024-03-17T11:15:38;15.40;42.30
6627;DHT22;3349;49.830;8.748;2024-03-17T11:21:19;15.30;41.60
6627;DHT22;3349;49.830;8.748;2024-03-17T11:23:55;15.50;41.60
6627;DHT22;3349;49.830;8.748;2024-03-17T11:26:27;15.50;41.90
6627;DHT22;3349;49.830;8.748;2024-03-17T11:28:54;15.70;42.50
6627;DHT22;3349;49.830;8.748;2024-03-17T11:31:42;15.90;41.60
6627;DHT22;3349;49.830;8.748;2024-03-17T11:34:32;16.70;40.40
6627;DHT22;3349;49.830;8.748;2024-03-17T11:37:00;17.50;38.50
6627;DHT22;3349;49.830;8.748;2024-03-17T11:39:45;18.20;38.10
6627;DHT22;3349;49.830;8.748;2024-03-17T11:42:13;18.40;37.10
6627;DHT22;3349;49.830;8.748;2024-03-17T11:44:42;18.00;37.30
6627;DHT22;3349;49.830;8.748;2024-03-17T11:47:10;17.40;38.00
6627;DHT22;3349;49.830;8.748;2024-03-17T11:49:37;17.10;39.10
6627;DHT22;3349;49.830;8.748;2024-03-17T11:52:07;16.60;39.20
6627;DHT22;3349;49.830;8.748;2024-03-17T11:54:35;16.20;40.10
6627;DHT22;3349;49.830;8.748;2024-03-17T11:57:04;16.30;40.80
6627;DHT22;3349;49.830;8.748;2024-03-17T11:59:31;16.30;41.00
6627;DHT22;3349;49.830;8.748;2024-03-17T12:01:58;16.40;40.80
6627;DHT22;3349;49.830;8.748;2024-03-17T12:04:25;16.40;40.40
6627;DHT22;3349;49.830;8.748;2024-03-17T12:06:54;16.60;41.00
6627;DHT22;3349;49.830;8.748;2024-03-17T12:09:21;16.90;40.60
6627;DHT22;3349;49.830;8.748;2024-03-17T12:11:48;17.00;40.00
6627;DHT22;3349;49.830;8.748;2024-03-17T12:14:16;16.70;40.10
6627;DHT22;3349;49.830;8.748;2024-03-17T12:16:48;16.70;40.30
6627;DHT22;3349;49.830;8.748;2024-03-17T12:19:14;16.90;39.50
6627;DHT22;3349;49.830;8.748;2024-03-17T12:21:46;16.50;39.90
6627;DHT22;3349;49.830;8.748;2024-03-17T12:24:17;16.40;40.80
6627;DHT22;3349;49.830;8.748;2024-03-17T12:26:45;16.30;41.20
6627;DHT22;3349;49.830;8.748;2024-03-17T12:29:28;16.00;41.40
6627;DHT22;3349;49.830;8.748;2024-03-17T12:31:59;15.90;41.90
6627;DHT22;3349;49.830;8.748;2024-03-17T12:34:28;16.10;41.40
6627;DHT22;3349;49.830;8.748;2024-03-17T12:36:58;16.20;41.00
6627;DHT22;3349;49.830;8.748;2024-03-17T12:39:25;16.20;41.60
6627;DHT22;3349;49.830;8.748;2024-03-17T12:42:03;16.00;41.90
6627;DHT22;3349;49.830;8.748;2024-03-17T12:44:30;16.00;41.90
6627;DHT22;3349;49.830;8.748;2024-03-17T12:46:57;16.20;41.60
6627;DHT22;3349;49.830;8.748;2024-03-17T12:49:23;16.10;41.40
6627;DHT22;3349;49.830;8.748;2024-03-17T12:51:51;16.30;41.60
6627;DHT22;3349;49.830;8.748;2024-03-17T12:54:22;16.30;41.60
6627;DHT22;3349;49.830;8.748;2024-03-17T12:56:49;16.10;41.20
6627;DHT22;3349;49.830;8.748;2024-03-17T12:59:38;15.80;41.90
6627;DHT22;3349;49.830;8.748;2024-03-17T13:02:34;15.50;42.50
6627;DHT22;3349;49.830;8.748;2024-03-17T13:05:10;15.20;42.90
6627;DHT22;3349;49.830;8.748;2024-03-17T13:07:38;15.20;44.20
6627;DHT22;3349;49.830;8.748;2024-03-17T13:10:06;15.00;44.40
6627;DHT22;3349;49.830;8.748;2024-03-17T13:12:33;14.90;44.30
6627;DHT22;3349;49.830;8.748;2024-03-17T13:15:00;14.70;44.70
6627;DHT22;3349;49.830;8.748;2024-03-17T13:17:27;14.60;44.00
6627;DHT22;3349;49.830;8.748;2024-03-17T13:19:56;14.60;44.30
6627;DHT22;3349;49.830;8.748;2024-03-17T13:22:22;14.60;44.30
6627;DHT22;3349;49.830;8.748;2024-03-17T13:24:49;14.60;44.30
6627;DHT22;3349;49.830;8.748;2024-03-17T13:27:18;14.50;43.90
6627;DHT22;3349;49.830;8.748;2024-03-17T13:29:48;14.50;45.10
6627;DHT22;3349;49.830;8.748;2024-03-17T13:32:15;14.50;44.80
6627;DHT22;3349;49.830;8.748;2024-03-17T13:34:43;14.50;45.40
6627;DHT22;3349;49.830;8.748;2024-03-17T13:37:09;14.50;45.40
6627;DHT22;3349;49.830;8.748;2024-03-17T13:39:36;14.50;45.00
6627;DHT22;3349;49.830;8.748;2024-03-17T13:42:03;14.40;45.10
6627;DHT22;3349;49.830;8.748;2024-03-17T13:44:32;14.40;45.30
6627;DHT22;3349;49.830;8.748;2024-03-17T13:46:59;14.40;46.40
6627;DHT22;3349;49.830;8.748;2024-03-17T13:49:28;14.50;45.50
6627;DHT22;3349;49.830;8.748;2024-03-17T13:51:55;14.60;45.90
6627;DHT22;3349;49.830;8.748;2024-03-17T13:54:22;14.60;45.40
6627;DHT22;3349;49.830;8.748;2024-03-17T13:56:49;14.70;45.00
6627;DHT22;3349;49.830;8.748;2024-03-17T13:59:16;14.80;45.30
6627;DHT22;3349;49.830;8.748;2024-03-17T14:01:44;15.00;45.00
6627;DHT22;3349;49.830;8.748;2024-03-17T14:04:13;15.30;44.60
6627;DHT22;3349;49.830;8.748;2024-03-17T14:06:41;15.40;44.70
6627;DHT22;3349;49.830;8.748;2024-03-17T14:09:08;15.50;44.80
6627;DHT22;3349;49.830;8.748;2024-03-17T14:11:36;15.50;44.80
6627;DHT22;3349;49.830;8.748;2024-03-17T14:14:02;15.60;44.10
6627;DHT22;3349;49.830;8.748;2024-03-17T14:16:30;15.50;43.60
6627;DHT22;3349;49.830;8.748;2024-03-17T14:18:59;15.30;43.80
6627;DHT22;3349;49.830;8.748;2024-03-17T14:21:26;15.10;43.40
6627;DHT22;3349;49.830;8.748;2024-03-17T14:23:54;15.30;44.30
6627;DHT22;3349;49.830;8.748;2024-03-17T14:26:21;15.20;44.50
6627;DHT22;3349;49.830;8.748;2024-03-17T14:28:47;15.20;44.50
6627;DHT22;3349;49.830;8.748;2024-03-17T14:31:15;15.00;44.40
6627;DHT22;3349;49.830;8.748;2024-03-17T14:33:42;15.00;45.20
6627;DHT22;3349;49.830;8.748;2024-03-17T14:36:10;14.90;44.90
6627;DHT22;3349;49.830;8.748;2024-03-17T14:38:37;14.80;44.20
6627;DHT22;3349;49.830;8.748;2024-03-17T14:41:04;14.70;44.40
6627;DHT22;3349;49.830;8.748;2024-03-17T14:43:31;14.60;45.50
6627;DHT22;3349;49.830;8.748;2024-03-17T14:45:58;14.50;46.20
6627;DHT22;3349;49.830;8.748;2024-03-17T14:48:24;14.50;46.40
6627;DHT22;3349;49.830;8.748;2024-03-17T14:50:51;14.30;46.60
6627;DHT22;3349;49.830;8.748;2024-03-17T14:53:19;14.40;46.50
6627;DHT22;3349;49.830;8.748;2024-03-17T14:55:46;14.50;45.80
6627;DHT22;3349;49.830;8.748;2024-03-17T14:58:12;14.40;45.00
6627;DHT22;3349;49.830;8.748;2024-03-17T15:00:40;14.20;46.00
6627;DHT22;3349;49.830;8.748;2024-03-17T15:03:07;14.10;45.70
6627;DHT22;3349;49.830;8.748;2024-03-17T15:05:34;14.10;45.60
6627;DHT22;3349;49.830;8.748;2024-03-17T15:08:00;14.10;45.70
6627;DHT22;3349;49.830;8.748;2024-03-17T15:10:29;14.10;46.00
6627;DHT22;3349;49.830;8.748;2024-03-17T15:12:56;14.20;46.20
6627;DHT22;3349;49.830;8.748;2024-03-17T15:15:23;14.20;46.50
6627;DHT22;3349;49.830;8.748;2024-03-17T15:17:49;14.20;46.10
6627;DHT22;3349;49.830;8.748;2024-03-17T15:20:16;14.10;45.60
6627;DHT22;3349;49.830;8.748;2024-03-17T15:22:44;14.10;45.30
6627;DHT22;3349;49.830;8.748;2024-03-17T15:25:12;14.10;45.90
6627;DHT22;3349;49.830;8.748;2024-03-17T15:27:41;14.10;45.60
6627;DHT22;3349;49.830;8.748;2024-03-17T15:30:12;14.20;46.30
6627;DHT22;3349;49.830;8.748;2024-03-17T15:32:41;14.30;46.30
6627;DHT22;3349;49.830;8.748;2024-03-17T15:35:10;14.50;46.30
6627;DHT22;3349;49.830;8.748;2024-03-17T15:37:38;14.50;46.20
6627;DHT22;3349;49.830;8.748;2024-03-17T15:40:06;14.60;45.60
6627;DHT22;3349;49.830;8.748;2024-03-17T15:42:32;14.70;45.20
6627;DHT22;3349;49.830;8.748;2024-03-17T15:45:01;14.70;45.20
6627;DHT22;3349;49.830;8.748;2024-03-17T15:47:27;14.80;45.10
6627;DHT22;3349;49.830;8.748;2024-03-17T15:49:54;14.80;44.90
6627;DHT22;3349;49.830;8.748;2024-03-17T15:52:21;15.00;44.90
6627;DHT22;3349;49.830;8.748;2024-03-17T15:54:48;15.00;45.60
6627;DHT22;3349;49.830;8.748;2024-03-17T15:57:14;15.10;46.20
6627;DHT22;3349;49.830;8.748;2024-03-17T15:59:41;15.00;44.40
6627;DHT22;3349;49.830;8.748;2024-03-17T16:02:10;14.80;44.20
6627;DHT22;3349;49.830;8.748;2024-03-17T16:04:38;14.70;44.40
6627;DHT22;3349;49.830;8.748;2024-03-17T16:07:05;14.70;44.20
6627;DHT22;3349;49.830;8.748;2024-03-17T16:09:32;15.10;44.50
6627;DHT22;3349;49.830;8.748;2024-03-17T16:11:59;15.10;44.40
6627;DHT22;3349;49.830;8.748;2024-03-17T16:14:26;15.30;44.60
6627;DHT22;3349;49.830;8.748;2024-03-17T16:16:53;15.20;44.50